Time;durP1;ratioP1;P1;durP2;ratioP2;P2;SDS_P1;SDS_P2;PMS_P1;PMS_P2;Temp;Humidity;BMP_temperature;BMP_pressure;BME280_temperature;BME280_humidity;BME280_pressure;Samples;Min_cycle;Max_cycle;Signal;HPM_P1;HPM_P2
2022/07/10 00:00:30;;;;;;;6.05;2.10;;;;;;;15.29;59.94;100677.03;4881398;29;20056;-69
2022/07/10 00:02:57;;;;;;;8.93;2.75;;;;;;;15.26;60.09;100678.06;4887955;29;20060;-68
2022/07/10 00:05:26;;;;;;;5.32;2.17;;;;;;;15.24;60.40;100674.63;4872599;29;20049;-67
2022/07/10 00:07:53;;;;;;;5.10;2.50;;;;;;;15.25;60.23;100665.69;4875864;29;20052;-68
2022/07/10 00:10:21;;;;;;;10.27;2.58;;;;;;;15.25;60.16;100669.19;4884746;29;20056;-69
2022/07/10 00:12:48;;;;;;;8.18;2.35;;;;;;;15.28;60.18;100672.63;4883372;29;20052;-69
2022/07/10 00:15:15;;;;;;;9.15;2.65;;;;;;;15.22;60.43;100679.16;4878751;29;20084;-69
2022/07/10 00:17:42;;;;;;;9.82;3.08;;;;;;;15.19;60.64;100677.50;4888393;29;20052;-68
2022/07/10 00:20:10;;;;;;;11.60;2.67;;;;;;;15.16;60.77;100676.81;4873352;29;20052;-68
2022/07/10 00:22:38;;;;;;;9.20;2.00;;;;;;;15.15;60.76;100673.31;4873742;29;20053;-68
2022/07/10 00:25:07;;;;;;;7.55;2.95;;;;;;;15.17;60.63;100671.44;4864462;29;20052;-68
2022/07/10 00:27:33;;;;;;;9.00;2.38;;;;;;;15.16;60.67;100675.03;4873829;29;20049;-69
2022/07/10 00:30:01;;;;;;;7.75;2.58;;;;;;;15.15;60.76;100669.78;4873441;29;20045;-68
2022/07/10 00:32:27;;;;;;;10.50;3.00;;;;;;;15.12;60.89;100664.66;4873994;29;20051;-68
2022/07/10 00:34:54;;;;;;;6.82;3.13;;;;;;;15.10;60.90;100670.03;4873119;29;20052;-70
2022/07/10 00:37:21;;;;;;;5.20;2.05;;;;;;;15.08;61.20;100669.25;4873733;29;20057;-68
2022/07/10 00:39:49;;;;;;;5.53;2.53;;;;;;;15.08;61.15;100660.44;4874182;29;20461;-68
2022/07/10 00:42:16;;;;;;;6.80;3.00;;;;;;;15.02;61.14;100664.28;4874452;29;20153;-69
2022/07/10 00:44:44;;;;;;;8.90;3.20;;;;;;;14.96;61.55;100660.19;4873067;29;20531;-70
2022/07/10 00:47:13;;;;;;;10.43;3.10;;;;;;;14.89;61.75;100661.44;4874286;29;20080;-68
2022/07/10 00:49:40;;;;;;;8.18;2.70;;;;;;;14.82;61.85;100663.56;4873723;29;20037;-70
2022/07/10 00:52:09;;;;;;;7.22;2.65;;;;;;;14.78;62.19;100654.03;4873310;29;20408;-68
2022/07/10 00:54:37;;;;;;;4.90;2.65;;;;;;;14.74;62.51;100664.88;4872631;29;20148;-68
2022/07/10 00:57:07;;;;;;;6.53;2.20;;;;;;;14.76;62.29;100663.84;4872775;29;20049;-68
2022/07/10 00:59:35;;;;;;;5.32;1.88;;;;;;;14.72;62.51;100657.00;4872571;29;20057;-68
2022/07/10 01:02:02;;;;;;;5.13;2.63;;;;;;;14.66;62.75;100646.69;4867841;29;20519;-68
2022/07/10 01:04:29;;;;;;;8.60;2.67;;;;;;;14.66;62.60;100653.81;4872114;29;20057;-69
2022/07/10 01:06:55;;;;;;;7.50;2.80;;;;;;;14.64;62.71;100643.25;4872819;29;20045;-68
2022/07/10 01:09:22;;;;;;;4.80;2.58;;;;;;;14.60;62.95;100641.72;4872169;29;20436;-67
2022/07/10 01:11:49;;;;;;;6.43;2.20;;;;;;;14.55;63.16;100633.16;4879686;29;20053;-67
2022/07/10 01:14:17;;;;;;;5.72;2.10;;;;;;;14.52;63.10;100628.84;4872043;29;20154;-68
2022/07/10 01:16:44;;;;;;;4.63;2.45;;;;;;;14.53;63.34;100629.69;4872209;29;20049;-69
2022/07/10 01:19:11;;;;;;;5.55;2.60;;;;;;;14.52;63.51;100626.19;4872805;29;20056;-67
2022/07/10 01:21:39;;;;;;;9.25;2.50;;;;;;;14.53;63.18;100622.59;4872958;29;20124;-68
2022/07/10 01:24:08;;;;;;;9.98;5.43;;;;;;;14.58;63.33;100627.69;4871938;29;20132;-70
2022/07/10 01:26:36;;;;;;;6.53;3.15;;;;;;;14.59;62.64;100622.31;4872363;29;20040;-68
2022/07/10 01:29:05;;;;;;;8.23;3.67;;;;;;;14.55;63.16;100615.44;4872585;29;20132;-69
2022/07/10 01:31:32;;;;;;;15.07;3.47;;;;;;;14.46;63.40;100615.88;4874740;29;20052;-68
2022/07/10 01:34:01;;;;;;;4.90;2.20;;;;;;;14.45;63.53;100607.97;4873628;29;20057;-68
2022/07/10 01:36:29;;;;;;;18.10;3.33;;;;;;;14.47;63.58;100600.81;4874170;29;20059;-68
2022/07/10 01:38:58;;;;;;;10.65;2.83;;;;;;;14.43;63.61;100594.81;4875455;29;20053;-69
2022/07/10 01:41:28;;;;;;;9.88;3.20;;;;;;;14.36;63.67;100601.38;4876850;29;20468;-69
2022/07/10 01:43:55;;;;;;;9.40;2.90;;;;;;;14.30;64.22;100606.97;4874233;29;20049;-72
2022/07/10 01:46:22;;;;;;;7.07;2.25;;;;;;;14.31;64.42;100606.91;4872687;29;20059;-67
2022/07/10 01:48:48;;;;;;;9.93;2.88;;;;;;;14.30;64.09;100607.88;4871603;29;20088;-69
2022/07/10 01:51:15;;;;;;;14.00;3.97;;;;;;;14.24;64.92;100600.22;4872236;29;20063;-68
2022/07/10 01:53:42;;;;;;;15.32;4.15;;;;;;;14.26;64.63;100608.09;4871843;29;20049;-69
2022/07/10 01:56:11;;;;;;;12.75;4.80;;;;;;;14.23;64.95;100611.75;4872094;29;20045;-69
2022/07/10 01:58:38;;;;;;;9.90;4.40;;;;;;;14.27;64.84;100612.44;4872440;29;20067;-69
2022/07/10 02:01:06;;;;;;;8.30;3.67;;;;;;;14.29;64.52;100611.44;4872298;29;20049;-71
2022/07/10 02:06:17;;;;;;;7.05;2.58;;;;;;;14.30;64.99;100612.28;4876937;29;20056;-70
2022/07/10 02:08:44;;;;;;;8.50;2.63;;;;;;;14.29;64.62;100603.47;4874236;29;20049;-69
2022/07/10 02:11:12;;;;;;;9.55;3.03;;;;;;;14.28;64.90;100604.44;4872028;29;20713;-70
2022/07/10 02:13:38;;;;;;;7.05;2.83;;;;;;;14.28;64.75;100598.28;4872663;29;20052;-68
2022/07/10 02:16:06;;;;;;;11.82;2.95;;;;;;;14.23;64.79;100592.34;4870919;29;20045;-68
2022/07/10 02:18:32;;;;;;;4.82;2.50;;;;;;;14.17;65.72;100593.50;4871808;29;20064;-67
2022/07/10 02:20:59;;;;;;;6.45;2.65;;;;;;;14.16;65.55;100590.00;4872204;29;20052;-68
2022/07/10 02:23:25;;;;;;;5.97;3.10;;;;;;;14.19;65.48;100588.97;4872379;29;20061;-69
2022/07/10 02:25:52;;;;;;;5.47;2.05;;;;;;;14.26;65.14;100584.22;4871553;29;20678;-69
2022/07/10 02:28:20;;;;;;;9.15;3.20;;;;;;;14.28;64.93;100588.50;4872216;29;20109;-71
2022/07/10 02:30:46;;;;;;;7.82;2.97;;;;;;;14.28;64.91;100587.66;4871748;29;20461;-70
2022/07/10 02:33:13;;;;;;;7.70;3.15;;;;;;;14.19;65.49;100581.03;4871552;29;20060;-69
2022/07/10 02:35:40;;;;;;;11.60;3.63;;;;;;;14.10;65.41;100589.44;4871162;29;20049;-69
2022/07/10 02:38:06;;;;;;;5.00;2.47;;;;;;;14.14;65.18;100591.00;4872426;29;20113;-68
2022/07/10 02:40:33;;;;;;;5.03;2.97;;;;;;;14.16;65.33;100597.09;4872040;29;20048;-68
2022/07/10 02:42:59;;;;;;;9.48;2.95;;;;;;;14.22;65.43;100593.28;4872006;29;20052;-68
2022/07/10 02:45:27;;;;;;;6.32;3.63;;;;;;;14.28;64.87;100596.47;4871086;29;20072;-68
2022/07/10 02:47:54;;;;;;;5.97;2.88;;;;;;;14.33;64.63;100593.59;4871873;29;20053;-68
2022/07/10 02:50:20;;;;;;;9.68;3.35;;;;;;;14.30;64.83;100594.59;4872719;29;20051;-68
2022/07/10 02:52:47;;;;;;;8.77;4.53;;;;;;;14.30;65.04;100599.03;4873108;29;20052;-69
2022/07/10 02:55:13;;;;;;;9.38;3.08;;;;;;;14.33;65.09;100598.88;4871369;29;20059;-69
2022/07/10 02:57:40;;;;;;;7.35;3.03;;;;;;;14.42;64.42;100593.09;4871784;29;20053;-69
2022/07/10 03:00:08;;;;;;;4.40;2.17;;;;;;;14.52;64.51;100588.16;4872344;29;20045;-69
2022/07/10 03:02:36;;;;;;;11.25;3.05;;;;;;;14.48;64.06;100587.47;4875874;29;20525;-68
2022/07/10 03:05:02;;;;;;;5.18;2.80;;;;;;;14.47;64.18;100593.72;4874212;29;20124;-69
2022/07/10 03:07:29;;;;;;;6.60;2.60;;;;;;;14.53;64.17;100597.84;4874840;29;20517;-68
2022/07/10 03:09:55;;;;;;;7.07;3.30;;;;;;;14.54;63.88;100599.56;4874946;29;20053;-68
2022/07/10 03:12:22;;;;;;;8.45;3.78;;;;;;;14.56;63.86;100595.06;4874471;29;20059;-68
2022/07/10 03:14:48;;;;;;;6.60;2.85;;;;;;;14.59;63.79;100597.53;4874013;29;20055;-68
2022/07/10 03:17:15;;;;;;;9.63;2.92;;;;;;;14.60;63.73;100599.28;4874407;29;20053;-68
2022/07/10 03:19:43;;;;;;;5.47;2.67;;;;;;;14.63;63.44;100599.09;4874401;29;20055;-68
2022/07/10 03:22:09;;;;;;;10.05;4.80;;;;;;;14.60;63.68;100593.97;4875032;29;20048;-69
2022/07/10 03:24:36;;;;;;;7.97;3.78;;;;;;;14.63;63.83;100599.09;4873920;29;20409;-69
2022/07/10 03:27:03;;;;;;;7.18;3.92;;;;;;;14.69;63.66;100603.22;4874456;29;20502;-70
2022/07/10 03:29:30;;;;;;;9.00;4.22;;;;;;;14.73;63.69;100600.31;4874463;29;20561;-69
2022/07/10 03:31:58;;;;;;;7.25;2.72;;;;;;;14.72;63.25;100593.31;4874592;29;20387;-69
2022/07/10 03:34:24;;;;;;;5.60;3.10;;;;;;;14.67;63.81;100599.78;4873463;29;20055;-67
2022/07/10 03:36:52;;;;;;;4.28;3.10;;;;;;;14.69;63.80;100597.91;4874176;29;20092;-68
2022/07/10 03:39:19;;;;;;;6.18;2.40;;;;;;;14.73;63.50;100589.72;4874450;29;20084;-68
2022/07/10 03:41:46;;;;;;;4.80;2.33;;;;;;;14.77;63.34;100591.25;4874246;29;20051;-68
2022/07/10 03:44:12;;;;;;;8.48;2.78;;;;;;;14.78;63.36;100598.28;4873195;29;20136;-68
2022/07/10 03:46:39;;;;;;;11.68;3.67;;;;;;;14.75;63.45;100589.63;4874383;29;20059;-67
2022/07/10 03:49:05;;;;;;;7.20;2.60;;;;;;;14.77;63.40;100595.72;4874259;29;20473;-69
2022/07/10 03:51:32;;;;;;;6.45;2.67;;;;;;;14.76;63.52;100591.34;4873968;29;20051;-68
2022/07/10 03:54:00;;;;;;;5.07;2.72;;;;;;;14.71;63.57;100594.22;4873370;29;20049;-68
2022/07/10 03:59:10;;;;;;;7.07;2.58;;;;;;;14.72;63.48;100587.16;4884760;29;20051;-68
2022/07/10 04:01:37;;;;;;;8.50;2.60;;;;;;;14.74;63.53;100595.88;4892143;29;20412;-70
2022/07/10 04:04:03;;;;;;;5.45;2.53;;;;;;;14.78;63.46;100603.59;4873218;29;20573;-70
2022/07/10 04:06:30;;;;;;;7.82;2.78;;;;;;;14.77;63.47;100596.56;4873560;29;20061;-69
2022/07/10 04:08:57;;;;;;;3.60;2.35;;;;;;;14.74;63.64;100593.22;4873667;29;20049;-68
2022/07/10 04:11:25;;;;;;;11.88;3.38;;;;;;;14.73;63.61;100595.00;4873661;29;20049;-68
2022/07/10 04:13:52;;;;;;;7.72;2.58;;;;;;;14.74;63.44;100594.09;4872728;29;20049;-69
2022/07/10 04:16:18;;;;;;;8.15;3.00;;;;;;;14.73;63.68;100586.19;4872845;29;20425;-69
2022/07/10 04:18:45;;;;;;;5.55;2.75;;;;;;;14.71;63.59;100588.91;4873374;29;20069;-68
2022/07/10 04:21:11;;;;;;;5.85;3.03;;;;;;;14.74;63.49;100585.25;4873492;29;20049;-69
2022/07/10 04:23:38;;;;;;;5.47;2.92;;;;;;;14.76;63.41;100584.22;4873731;29;20433;-68
2022/07/10 04:26:05;;;;;;;9.82;2.88;;;;;;;14.77;63.41;100590.41;4872790;29;20056;-68
2022/07/10 04:28:33;;;;;;;7.22;2.92;;;;;;;14.75;63.68;100587.84;4872855;29;20413;-69
2022/07/10 04:30:59;;;;;;;5.82;2.88;;;;;;;14.74;63.54;100588.78;4873176;29;20049;-69
2022/07/10 04:33:26;;;;;;;6.47;3.00;;;;;;;14.71;63.28;100586.28;4872523;29;20053;-68
2022/07/10 04:35:52;;;;;;;5.65;2.60;;;;;;;14.69;63.61;100587.28;4872066;29;20048;-69
2022/07/10 04:38:19;;;;;;;6.40;3.10;;;;;;;14.68;63.77;100586.44;4872934;29;20063;-68
2022/07/10 04:40:46;;;;;;;7.80;3.60;;;;;;;14.70;63.68;100589.03;4872877;29;20049;-68
2022/07/10 04:43:12;;;;;;;6.15;2.92;;;;;;;14.71;63.48;100594.22;4873368;29;20052;-68
2022/07/10 04:45:40;;;;;;;7.15;3.13;;;;;;;14.69;63.48;100588.16;4872787;29;20144;-68
2022/07/10 04:48:07;;;;;;;8.32;3.50;;;;;;;14.66;63.82;100590.97;4872957;29;20049;-68
2022/07/10 04:50:33;;;;;;;6.22;3.72;;;;;;;14.71;63.57;100596.03;4872903;29;20053;-69
2022/07/10 04:53:00;;;;;;;4.80;2.88;;;;;;;14.67;63.50;100592.69;4872808;29;20045;-70
2022/07/10 04:55:27;;;;;;;9.07;3.03;;;;;;;14.70;63.56;100595.19;4878601;29;20058;-70
2022/07/10 04:57:53;;;;;;;11.55;3.80;;;;;;;14.67;63.76;100600.66;4873737;29;20050;-69
2022/07/10 05:00:20;;;;;;;5.97;3.05;;;;;;;14.71;63.70;100598.69;4872960;29;20117;-69
2022/07/10 05:02:48;;;;;;;8.98;4.07;;;;;;;14.72;63.84;100603.06;4872586;29;20071;-68
2022/07/10 05:05:15;;;;;;;5.78;3.03;;;;;;;14.78;63.47;100602.72;4871990;29;20053;-68
2022/07/10 05:07:41;;;;;;;7.35;3.25;;;;;;;14.79;63.44;100602.66;4872842;29;20049;-69
2022/07/10 05:10:09;;;;;;;8.48;2.70;;;;;;;14.84;63.39;100602.41;4873005;29;20049;-68
2022/07/10 05:12:36;;;;;;;8.80;3.45;;;;;;;14.89;63.31;100615.41;4872847;29;20052;-68
2022/07/10 05:15:02;;;;;;;6.43;3.00;;;;;;;14.99;62.72;100611.34;4871575;29;20408;-69
2022/07/10 05:17:29;;;;;;;11.10;2.65;;;;;;;15.01;62.94;100610.31;4872437;29;20045;-68
2022/07/10 05:19:57;;;;;;;9.73;4.10;;;;;;;15.05;62.80;100612.81;4872534;29;20057;-69
2022/07/10 05:22:24;;;;;;;9.70;3.50;;;;;;;15.02;62.94;100616.50;4872291;29;20064;-68
2022/07/10 05:24:50;;;;;;;7.65;2.95;;;;;;;15.08;62.85;100620.59;4871397;29;20181;-68
2022/07/10 05:27:19;;;;;;;7.05;2.72;;;;;;;15.16;62.38;100621.03;4872867;29;20480;-67
2022/07/10 05:29:46;;;;;;;8.27;2.67;;;;;;;15.18;62.55;100625.31;4872893;29;20052;-68
2022/07/10 05:32:12;;;;;;;6.47;3.08;;;;;;;15.20;62.83;100628.75;4872332;29;20075;-68
2022/07/10 05:34:39;;;;;;;5.05;2.42;;;;;;;15.28;62.44;100623.00;4871841;29;20057;-68
2022/07/10 05:37:07;;;;;;;8.95;2.72;;;;;;;15.34;62.42;100627.16;4872410;29;20044;-68
2022/07/10 05:39:35;;;;;;;7.68;3.33;;;;;;;15.32;62.55;100624.56;4871876;29;20056;-68
2022/07/10 05:42:01;;;;;;;6.78;2.60;;;;;;;15.27;62.71;100620.47;4872157;29;20059;-68
2022/07/10 05:44:28;;;;;;;12.98;2.72;;;;;;;15.32;62.58;100632.53;4871692;29;20116;-68
2022/07/10 05:46:54;;;;;;;6.70;2.90;;;;;;;15.37;61.90;100630.47;4871650;29;20060;-68
2022/07/10 05:49:21;;;;;;;8.68;3.90;;;;;;;15.38;62.13;100620.69;4869460;29;20430;-68
2022/07/10 05:51:47;;;;;;;12.20;3.78;;;;;;;15.33;62.09;100612.13;4879633;29;20424;-68
2022/07/10 05:54:15;;;;;;;5.00;3.15;;;;;;;15.39;62.30;100611.81;4871305;29;20053;-68
2022/07/10 05:56:42;;;;;;;7.40;3.88;;;;;;;15.43;62.09;100608.00;4871902;29;20053;-67
2022/07/10 05:59:09;;;;;;;10.90;4.40;;;;;;;15.36;62.26;100602.22;4872219;29;20648;-68
2022/07/10 06:01:35;;;;;;;11.13;4.15;;;;;;;15.35;62.44;100610.25;4871946;29;20059;-67
2022/07/10 06:04:02;;;;;;;9.80;3.08;;;;;;;15.37;62.37;100614.53;4871216;29;20067;-67
2022/07/10 06:06:28;;;;;;;10.07;2.85;;;;;;;15.44;62.12;100615.06;4871923;29;20167;-67
2022/07/10 06:08:55;;;;;;;10.10;2.90;;;;;;;15.48;62.17;100618.38;4871847;29;20048;-68
2022/07/10 06:11:23;;;;;;;14.02;3.78;;;;;;;15.53;61.74;100621.63;4872291;29;20506;-67
2022/07/10 06:13:49;;;;;;;7.43;2.78;;;;;;;15.53;61.64;100624.28;4871899;29;20053;-68
2022/07/10 06:16:16;;;;;;;8.50;2.83;;;;;;;15.53;60.91;100627.84;4871397;29;20053;-67
2022/07/10 06:18:43;;;;;;;5.68;2.40;;;;;;;15.53;61.75;100622.53;4872019;29;20049;-68
2022/07/10 06:21:10;;;;;;;6.70;2.38;;;;;;;15.55;61.34;100623.25;4872742;29;20055;-72
2022/07/10 06:23:36;;;;;;;8.25;2.97;;;;;;;15.46;61.45;100621.16;4872044;29;20045;-67
2022/07/10 06:26:03;;;;;;;9.73;3.28;;;;;;;15.36;61.78;100628.78;4871192;29;20304;-68
2022/07/10 06:28:31;;;;;;;10.18;2.65;;;;;;;15.44;62.14;100633.66;4872023;29;20060;-68
2022/07/10 06:30:57;;;;;;;9.13;3.25;;;;;;;15.45;62.02;100630.91;4872068;29;20052;-68
2022/07/10 06:33:24;;;;;;;9.63;2.97;;;;;;;15.53;61.82;100630.50;4871666;29;20056;-69
2022/07/10 06:35:50;;;;;;;5.75;2.67;;;;;;;15.60;61.86;100625.66;4872560;29;20049;-69
2022/07/10 06:38:17;;;;;;;8.65;3.80;;;;;;;15.67;61.24;100627.88;4875151;29;20053;-69
2022/07/10 06:40:46;;;;;;;11.77;3.40;;;;;;;15.67;61.49;100625.22;4875040;29;20543;-68
2022/07/10 06:43:12;;;;;;;5.18;2.60;;;;;;;15.68;61.84;100631.41;4875178;29;20505;-68
2022/07/10 06:45:41;;;;;;;9.88;2.90;;;;;;;15.74;61.64;100639.06;4874874;29;20520;-68
2022/07/10 06:48:08;;;;;;;7.57;2.60;;;;;;;15.79;61.52;100644.97;4883031;29;20048;-69
2022/07/10 06:50:35;;;;;;;11.00;2.88;;;;;;;15.79;61.50;100636.16;4874920;29;20049;-68
2022/07/10 06:53:01;;;;;;;6.25;2.72;;;;;;;15.76;61.72;100641.66;4874509;29;20053;-68
2022/07/10 06:55:28;;;;;;;7.85;2.90;;;;;;;15.73;61.63;100637.38;4874208;29;20069;-69
2022/07/10 06:57:55;;;;;;;14.05;2.97;;;;;;;15.73;62.08;100645.34;4875177;29;20527;-69
2022/07/10 07:00:23;;;;;;;4.75;2.22;;;;;;;15.76;61.89;100639.00;4874702;29;20428;-69
2022/07/10 07:02:51;;;;;;;10.02;2.50;;;;;;;15.74;61.78;100646.19;4875017;29;20060;-69
2022/07/10 07:05:18;;;;;;;7.28;2.83;;;;;;;15.74;61.33;100639.06;4873913;29;20057;-68
2022/07/10 07:07:44;;;;;;;8.18;2.72;;;;;;;15.77;61.54;100640.69;4874822;29;20139;-68
2022/07/10 07:10:12;;;;;;;9.57;2.97;;;;;;;15.80;61.44;100646.72;4874249;29;20053;-68
2022/07/10 07:12:39;;;;;;;8.35;3.17;;;;;;;15.76;61.98;100644.31;4874976;29;20063;-68
2022/07/10 07:15:07;;;;;;;8.68;2.90;;;;;;;15.83;61.53;100645.69;4873185;29;20053;-68
2022/07/10 07:17:46;;;;;;;12.82;3.88;;;;;;;15.86;61.56;100654.31;4874569;29;20055;-69
2022/07/10 07:23:13;;;;;;;11.98;4.57;;;;;;;15.77;61.84;100648.66;4874637;29;20047;-70
2022/07/10 07:25:41;;;;;;;7.10;2.58;;;;;;;15.80;61.82;100645.81;4874015;29;20502;-70
2022/07/10 07:28:09;;;;;;;10.27;6.65;;;;;;;15.91;61.54;100642.56;4874549;29;20127;-70
2022/07/10 07:30:36;;;;;;;6.20;3.30;;;;;;;16.02;61.22;100640.13;4874180;29;20053;-70
2022/07/10 07:33:02;;;;;;;7.32;3.88;;;;;;;16.09;60.81;100644.16;4874036;29;20049;-71
2022/07/10 07:35:30;;;;;;;8.63;3.92;;;;;;;16.24;60.32;100645.06;4873227;29;20049;-70
2022/07/10 07:37:58;;;;;;;3.88;2.28;;;;;;;16.32;60.23;100645.47;4874205;29;20394;-70
2022/07/10 07:40:25;;;;;;;5.53;3.13;;;;;;;16.38;60.22;100642.44;4874040;29;20055;-69
2022/07/10 07:42:53;;;;;;;7.03;2.70;;;;;;;16.41;59.36;100634.25;4875680;29;20476;-70
2022/07/10 07:45:20;;;;;;;4.90;2.72;;;;;;;16.50;59.53;100630.19;4878352;29;20049;-70
2022/07/10 07:47:48;;;;;;;7.70;2.78;;;;;;;16.59;59.25;100642.97;4872898;29;20072;-70
2022/07/10 07:50:16;;;;;;;6.13;2.33;;;;;;;16.68;58.79;100638.88;4873805;29;20049;-70
2022/07/10 07:52:44;;;;;;;9.27;2.83;;;;;;;16.66;58.58;100638.09;4873868;29;20053;-70
2022/07/10 07:55:12;;;;;;;7.35;2.67;;;;;;;16.60;59.08;100630.50;4869005;29;20127;-69
2022/07/10 07:57:39;;;;;;;11.35;3.15;;;;;;;16.62;59.38;100640.09;4874509;29;20041;-69
2022/07/10 08:00:08;;;;;;;4.47;2.33;;;;;;;16.66;58.94;100638.09;4873954;29;20052;-69
2022/07/10 08:02:34;;;;;;;7.85;3.47;;;;;;;16.73;58.47;100636.78;4873766;29;20044;-68
2022/07/10 08:05:01;;;;;;;11.50;2.47;;;;;;;16.77;58.47;100637.47;4887366;29;21909;-70
2022/07/10 08:07:34;;;;;;;4.75;2.03;;;;;;;16.87;59.11;100636.81;4881592;29;20040;-70
2022/07/10 08:10:03;;;;;;;11.15;2.55;;;;;;;16.93;58.36;100636.47;4892182;29;20582;-69
2022/07/10 08:12:30;;;;;;;4.68;2.47;;;;;;;16.97;58.39;100638.91;4887608;29;20052;-51
2022/07/10 08:14:57;;;;;;;6.20;2.30;;;;;;;17.09;57.82;100630.16;4882094;29;20516;-52
2022/07/10 08:17:24;;;;;;;15.38;8.18;;;;;;;17.17;57.56;100633.19;4873789;29;20057;-54
2022/07/10 08:19:51;;;;;;;16.52;10.27;;;;;;;17.27;57.42;100626.31;4874228;29;20139;-56
2022/07/10 08:22:17;;;;;;;5.82;2.53;;;;;;;17.42;57.25;100626.28;4874009;29;20545;-54
2022/07/10 08:24:44;;;;;;;8.00;3.15;;;;;;;17.51;56.73;100629.22;4873180;29;20052;-57
2022/07/10 08:27:12;;;;;;;5.82;2.50;;;;;;;17.66;56.46;100631.84;4878897;29;20194;-56
2022/07/10 08:29:38;;;;;;;9.52;2.85;;;;;;;17.66;56.19;100622.03;4878412;29;20481;-60
2022/07/10 08:32:05;;;;;;;8.82;3.58;;;;;;;17.67;56.37;100623.78;4876522;29;20053;-57
2022/07/10 08:34:32;;;;;;;10.30;3.58;;;;;;;17.78;55.96;100626.56;4887046;29;20060;-58
2022/07/10 08:36:59;;;;;;;7.82;2.63;;;;;;;17.91;56.57;100621.31;4895299;29;20108;-52
2022/07/10 08:39:26;;;;;;;13.07;2.65;;;;;;;18.10;55.41;100620.94;4889941;29;20132;-55
2022/07/10 08:41:52;;;;;;;7.43;3.08;;;;;;;18.16;54.85;100622.31;4886393;29;20059;-56
2022/07/10 08:44:21;;;;;;;6.13;2.20;;;;;;;18.22;54.93;100621.94;4878112;29;20053;-58
2022/07/10 08:46:48;;;;;;;6.80;3.33;;;;;;;18.33;54.51;100618.50;4873206;29;20053;-55
2022/07/10 08:49:17;;;;;;;7.75;2.78;;;;;;;18.59;53.37;100622.06;4873214;29;20127;-56
2022/07/10 08:51:53;;;;;;;8.25;2.20;;;;;;;18.75;53.07;100613.84;4872904;29;20049;-56
2022/07/10 08:54:19;;;;;;;;;;;;;;;18.70;52.93;100613.31;4872675;29;20053;-53
2022/07/10 08:56:48;;;;;;;5.72;2.78;;;;;;;19.09;52.11;100610.50;4872645;29;19930;-57
2022/07/10 08:59:15;;;;;;;3.97;2.45;;;;;;;19.17;51.85;100612.63;4872711;29;20060;-53
2022/07/10 09:01:43;;;;;;;5.97;3.15;;;;;;;19.21;51.06;100613.28;4880411;29;20603;-55
2022/07/10 09:04:17;;;;;;;7.22;3.28;;;;;;;19.28;51.19;100615.38;4884059;29;20131;-55
2022/07/10 09:06:44;;;;;;;6.65;2.17;;;;;;;19.39;50.46;100611.06;4891198;29;20044;-50
2022/07/10 09:09:11;;;;;;;8.25;2.50;;;;;;;19.40;49.67;100604.78;4887977;29;20049;-54
2022/07/10 09:11:40;;;;;;;6.00;2.35;;;;;;;19.26;49.88;100600.44;4874265;29;20132;-53
2022/07/10 09:14:08;;;;;;;7.97;3.00;;;;;;;19.06;50.98;100605.38;4873577;29;20056;-57
2022/07/10 09:16:36;;;;;;;6.50;2.78;;;;;;;19.04;51.94;100604.63;4872444;29;20413;-56
2022/07/10 09:19:18;;;;;;;8.63;2.88;;;;;;;18.74;51.88;100596.13;4871824;29;20053;-57
2022/07/10 09:21:45;;;;;;;8.35;2.58;;;;;;;18.50;53.87;100599.53;4871968;29;20045;-57
2022/07/10 09:24:12;;;;;;;3.90;1.90;;;;;;;18.65;52.84;100598.44;4872191;29;20072;-65
2022/07/10 09:26:40;;;;;;;4.45;2.25;;;;;;;18.77;52.59;100601.25;4872295;29;20049;-54
2022/07/10 09:29:08;;;;;;;20.42;15.75;;;;;;;18.95;51.80;100604.44;4852310;29;20048;-59
2022/07/10 09:31:49;;;;;;;14.18;4.00;;;;;;;18.86;52.03;100601.47;4873489;29;20052;-60
2022/07/10 09:34:18;;;;;;;9.85;3.10;;;;;;;18.83;52.28;100603.50;4881033;29;20048;-65
2022/07/10 09:36:44;;;;;;;6.18;2.10;;;;;;;18.71;51.90;100602.53;4885135;29;20053;-63
2022/07/10 09:39:11;;;;;;;9.55;2.35;;;;;;;18.70;52.20;100594.59;4871274;29;20577;-63
2022/07/10 09:41:39;;;;;;;13.10;2.42;;;;;;;18.71;52.23;100591.00;4868934;29;20420;-62
2022/07/10 09:44:08;;;;;;;10.60;2.95;;;;;;;18.66;52.07;100589.50;4870613;29;20044;-62
2022/07/10 09:46:36;;;;;;;5.60;2.60;;;;;;;18.69;52.31;100584.91;4871073;29;20049;-61
2022/07/10 09:49:08;;;;;;;5.93;2.10;;;;;;;18.83;51.66;100585.66;4871932;29;20049;-62
2022/07/10 09:51:38;;;;;;;23.13;8.85;;;;;;;19.53;50.17;100587.69;4872025;29;20049;-57
2022/07/10 09:54:06;;;;;;;8.57;4.32;;;;;;;19.93;49.21;100583.91;4871716;29;20048;-51
2022/07/10 09:56:44;;;;;;;16.67;10.35;;;;;;;19.69;49.82;100587.47;4871940;29;20045;-51
2022/07/10 09:59:12;;;;;;;206.38;165.02;;;;;;;19.72;50.66;100583.72;4871804;29;20131;-54
2022/07/10 10:01:45;;;;;;;112.88;83.38;;;;;;;19.98;50.12;100584.41;4871893;29;20109;-56
2022/07/10 10:04:12;;;;;;;46.50;34.72;;;;;;;20.06;49.80;100582.00;4871410;29;20057;-53
2022/07/10 10:06:42;;;;;;;7.03;2.95;;;;;;;19.93;49.25;100590.09;4872113;29;20049;-64
2022/07/10 10:09:12;;;;;;;8.93;2.70;;;;;;;19.64;50.05;100594.06;4872452;29;20068;-64
2022/07/10 10:11:42;;;;;;;6.03;2.60;;;;;;;19.41;50.66;100596.63;4874853;29;20053;-66
2022/07/10 10:14:09;;;;;;;7.68;3.13;;;;;;;19.23;51.24;100592.63;4875669;29;20450;-65
2022/07/10 10:16:36;;;;;;;5.57;2.40;;;;;;;19.14;51.61;100593.28;4875447;29;20051;-65
2022/07/10 10:21:50;;;;;;;5.82;2.85;;;;;;;18.96;51.94;100595.47;4875689;29;20056;-64
2022/07/10 10:24:17;;;;;;;4.88;2.08;;;;;;;18.91;52.42;100595.81;4874935;29;20149;-65
2022/07/10 10:26:45;;;;;;;4.90;2.42;;;;;;;18.94;52.29;100582.22;4875505;29;20132;-65
2022/07/10 10:29:12;;;;;;;8.90;3.67;;;;;;;18.93;52.07;100599.22;4875554;29;20269;-65
2022/07/10 10:31:40;;;;;;;5.75;2.60;;;;;;;18.84;52.53;100586.50;4875150;29;20053;-65
2022/07/10 10:34:06;;;;;;;8.05;2.50;;;;;;;18.84;52.37;100586.50;4874953;29;20521;-65
2022/07/10 10:36:49;;;;;;;10.18;2.55;;;;;;;18.84;52.91;100584.69;4875032;29;20053;-65
2022/07/10 10:39:18;;;;;;;8.15;2.88;;;;;;;18.90;52.53;100585.22;4872927;29;20055;-65
2022/07/10 10:41:53;;;;;;;8.32;2.75;;;;;;;18.96;52.66;100582.97;4875371;29;20125;-65
2022/07/10 10:44:21;;;;;;;;;;;;;;;19.09;51.81;100589.13;4875487;29;20526;-64
2022/07/10 10:47:09;;;;;;;5.55;2.13;;;;;;;19.18;51.71;100592.97;4875185;29;20383;-65
2022/07/10 10:49:58;;;;;;;8.32;2.38;;;;;;;19.33;51.15;100591.00;4874842;29;20519;-65
2022/07/10 10:52:26;;;;;;;8.13;3.13;;;;;;;19.16;51.45;100589.53;4879472;29;20041;-65
2022/07/10 10:55:12;;;;;;;8.07;2.17;;;;;;;18.99;51.97;100588.09;4874172;29;20059;-65
2022/07/10 10:57:51;;;;;;;5.40;2.40;;;;;;;19.07;52.06;100579.50;4875209;29;20052;-65
2022/07/10 11:00:40;;;;;;;5.38;2.42;;;;;;;19.21;51.76;100575.84;4875473;29;20060;-65
2022/07/10 11:03:21;;;;;;;8.77;2.65;;;;;;;19.56;51.25;100586.63;4875061;29;20485;-65
2022/07/10 11:05:49;;;;;;;6.60;2.70;;;;;;;19.63;51.41;100585.19;4874326;29;20055;-64
2022/07/10 11:08:37;;;;;;;8.02;2.30;;;;;;;19.96;50.14;100578.34;4874894;29;20135;-64
2022/07/10 11:11:36;;;;;;;4.30;2.60;;;;;;;20.06;49.85;100573.09;4874905;29;20045;-64
2022/07/10 11:14:04;;;;;;;8.27;3.05;;;;;;;19.82;50.74;100575.84;4874045;29;20053;-65
2022/07/10 11:16:32;;;;;;;9.93;3.00;;;;;;;19.69;50.76;100576.75;4875001;29;20048;-65
2022/07/10 11:18:58;;;;;;;6.72;3.22;;;;;;;19.71;50.43;100573.94;4874955;29;20076;-65
2022/07/10 11:21:26;;;;;;;5.30;2.88;;;;;;;20.09;49.95;100567.53;4874661;29;20049;-65
2022/07/10 11:23:59;;;;;;;10.52;2.60;;;;;;;20.46;49.13;100560.19;4874361;29;20490;-64
2022/07/10 11:26:41;;;;;;;5.00;2.20;;;;;;;20.45;49.62;100561.13;4874699;29;20127;-65
2022/07/10 11:29:08;;;;;;;6.90;2.83;;;;;;;20.49;49.09;100561.75;4856791;29;20734;-65
2022/07/10 11:31:39;;;;;;;6.32;2.45;;;;;;;20.51;48.84;100554.47;4856575;29;20069;-64
2022/07/10 11:34:05;;;;;;;5.72;2.75;;;;;;;20.71;48.46;100559.13;4855689;29;20046;-66
2022/07/10 11:36:32;;;;;;;9.10;2.95;;;;;;;20.79;48.34;100556.69;4856110;29;20052;-64
2022/07/10 11:39:02;;;;;;;6.28;2.95;;;;;;;21.10;47.63;100546.19;4856168;29;20101;-64